createdAt,value
2023-02-15T00:01:57.273Z,75.43
2023-02-15T00:03:59.328Z,71.93
2023-02-15T00:06:02.202Z,78.03
2023-02-15T00:08:04.570Z,67.50
2023-02-15T00:10:07.727Z,66.60
2023-02-15T00:12:11.373Z,69.53
2023-02-15T00:14:24.798Z,70.10
2023-02-15T00:16:26.987Z,66.20
2023-02-15T00:18:29.167Z,67.60
2023-02-15T00:20:31.368Z,69.87
2023-02-15T00:22:33.399Z,66.77
2023-02-15T00:24:35.554Z,70.23
2023-02-15T00:26:40.368Z,74.93
2023-02-15T00:28:42.872Z,67.67
2023-02-15T00:30:44.949Z,68.17
2023-02-15T00:32:49.292Z,65.57
2023-02-15T00:34:52.823Z,69.47
2023-02-15T00:36:55.408Z,68.80
2023-02-15T00:38:57.612Z,71.97
2023-02-15T00:41:01.512Z,75.00
2023-02-15T00:43:05.860Z,75.23
2023-02-15T00:45:08.300Z,65.70
2023-02-15T00:47:10.594Z,73.30
2023-02-15T00:49:12.929Z,72.37
2023-02-15T00:51:17.862Z,73.83
2023-02-15T00:53:20.352Z,76.50
2023-02-15T00:55:22.731Z,70.00
2023-02-15T00:57:25.155Z,72.10
2023-02-15T00:59:27.313Z,74.30
2023-02-15T01:01:29.445Z,73.77
2023-02-15T01:03:31.564Z,77.47
2023-02-15T01:05:33.881Z,72.93
2023-02-15T01:07:38.969Z,82.27
2023-02-15T01:09:41.057Z,95.87
2023-02-15T01:11:43.211Z,91.23
2023-02-15T01:13:45.223Z,87.50
2023-02-15T01:15:53.702Z,93.30
2023-02-15T01:17:56.010Z,96.93
2023-02-15T01:19:57.942Z,97.47
2023-02-15T01:21:59.829Z,92.97
2023-02-15T01:24:02.889Z,91.97
2023-02-15T01:26:05.112Z,93.27
2023-02-15T01:28:07.167Z,90.37
2023-02-15T01:30:10.161Z,91.37
2023-02-15T01:32:12.804Z,83.87
2023-02-15T01:34:17.799Z,98.03
2023-02-15T01:36:19.910Z,92.83
2023-02-15T01:38:22.349Z,88.20
2023-02-15T01:40:25.441Z,91.77
2023-02-15T01:42:29.245Z,83.17
2023-02-15T01:44:53.606Z,82.77
2023-02-15T01:46:55.529Z,71.30
2023-02-15T01:49:17.923Z,75.90
2023-02-15T01:51:24.761Z,77.20
2023-02-15T01:53:45.926Z,78.47
2023-02-15T01:56:04.191Z,83.20
2023-02-15T01:58:07.288Z,84.43
2023-02-15T02:00:09.959Z,81.43
2023-02-15T02:02:17.856Z,83.23
2023-02-15T02:04:40.191Z,83.47
2023-02-15T02:06:43.087Z,79.40
2023-02-15T02:08:45.505Z,83.33
2023-02-15T02:10:47.810Z,77.90
2023-02-15T02:12:54.416Z,76.53
2023-02-15T02:14:57.347Z,78.33
2023-02-15T02:17:18.771Z,90.07
2023-02-15T02:19:39.125Z,90.80
2023-02-15T02:21:59.456Z,94.60
2023-02-15T02:24:31.783Z,96.40
2023-02-15T02:27:01.906Z,96.00
2023-02-15T02:29:04.950Z,93.10
2023-02-15T02:31:44.573Z,91.53
2023-02-15T02:34:09.119Z,93.97
2023-02-15T02:36:25.267Z,93.87
2023-02-15T02:38:54.972Z,96.53
2023-02-15T02:41:21.809Z,86.27
2023-02-15T02:43:41.616Z,89.43
2023-02-15T02:46:15.976Z,97.80
2023-02-15T02:48:23.924Z,93.67
2023-02-15T02:50:31.169Z,88.90
2023-02-15T02:52:48.755Z,94.20
2023-02-15T02:54:52.167Z,95.27
2023-02-15T02:56:56.827Z,90.47
2023-02-15T02:59:02.871Z,87.17
2023-02-15T03:01:17.011Z,86.70
2023-02-15T03:03:56.069Z,92.90
2023-02-15T03:06:03.304Z,83.83
2023-02-15T03:08:10.976Z,82.00
2023-02-15T03:10:14.844Z,87.60
2023-02-15T03:12:23.800Z,92.73
2023-02-15T03:14:27.387Z,83.57
2023-02-15T03:16:29.972Z,88.57
2023-02-15T03:18:37.997Z,86.57
2023-02-15T03:20:40.456Z,81.33
2023-02-15T03:23:05.492Z,86.40
2023-02-15T03:25:16.022Z,85.53
2023-02-15T03:27:23.875Z,85.83
2023-02-15T03:29:31.373Z,81.83
2023-02-15T03:31:39.387Z,82.00
2023-02-15T03:33:51.006Z,79.30
2023-02-15T03:36:10.491Z,83.17
2023-02-15T03:38:18.584Z,82.03
2023-02-15T03:40:45.948Z,76.33
2023-02-15T03:42:53.818Z,79.00
2023-02-15T03:45:12.873Z,80.63
2023-02-15T03:47:20.662Z,74.60
2023-02-15T03:49:29.872Z,75.57
2023-02-15T03:51:36.183Z,74.57
2023-02-15T03:53:39.857Z,71.57
2023-02-15T03:55:44.963Z,70.77
2023-02-15T03:58:06.277Z,72.67
2023-02-15T04:00:46.698Z,77.73
2023-02-15T04:03:07.228Z,78.00
2023-02-15T04:05:09.326Z,77.83
2023-02-15T04:07:11.455Z,79.53
2023-02-15T04:09:32.561Z,81.80
2023-02-15T04:11:34.887Z,81.70
2023-02-15T04:13:36.771Z,80.63
2023-02-15T04:15:57.390Z,84.17
2023-02-15T04:17:59.619Z,95.17
2023-02-15T04:20:20.536Z,90.13
2023-02-15T04:22:41.424Z,89.17
2023-02-15T04:25:02.193Z,83.80
2023-02-15T04:27:06.162Z,86.43
2023-02-15T04:29:08.421Z,98.70
2023-02-15T04:31:10.512Z,125.93
2023-02-15T04:33:12.821Z,120.57
2023-02-15T04:35:15.662Z,114.67
2023-02-15T04:37:17.639Z,120.73
2023-02-15T04:39:20.199Z,123.63
2023-02-15T04:41:22.348Z,130.07
2023-02-15T04:43:24.664Z,112.47
2023-02-15T04:45:28.397Z,133.00
2023-02-15T04:47:33.744Z,142.43
2023-02-15T04:49:35.909Z,141.07
2023-02-15T04:51:37.988Z,143.20
2023-02-15T04:53:40.159Z,142.17
2023-02-15T04:55:43.591Z,145.10
2023-02-15T04:57:47.024Z,131.30
2023-02-15T04:59:48.961Z,121.17
2023-02-15T05:01:50.994Z,125.63
2023-02-15T05:03:53.156Z,138.30
2023-02-15T05:05:56.300Z,137.43
2023-02-15T05:07:58.326Z,133.37
2023-02-15T05:10:00.435Z,134.73
2023-02-15T05:12:02.403Z,121.73
2023-02-15T05:14:05.136Z,122.80
2023-02-15T05:16:07.208Z,109.47
2023-02-15T05:18:09.277Z,116.13
2023-02-15T05:20:11.559Z,110.57
2023-02-15T05:22:13.766Z,112.73
2023-02-15T05:24:34.891Z,111.17
2023-02-15T05:26:55.762Z,107.60
2023-02-15T05:28:57.735Z,108.33
2023-02-15T05:31:17.843Z,104.67
2023-02-15T05:33:21.007Z,98.87
2023-02-15T05:35:23.217Z,117.47
2023-02-15T05:37:25.342Z,153.57
2023-02-15T05:39:27.434Z,124.03
2023-02-15T05:41:31.357Z,114.53
2023-02-15T05:43:33.628Z,112.17
2023-02-15T05:45:35.792Z,109.50
2023-02-15T05:47:37.774Z,142.73
2023-02-15T05:49:39.789Z,127.53
2023-02-15T05:51:41.893Z,126.53
2023-02-15T05:53:44.239Z,125.07
2023-02-15T05:55:46.317Z,123.30
2023-02-15T05:57:49.462Z,135.43
2023-02-15T05:59:51.468Z,160.40
2023-02-15T06:01:53.518Z,195.20
2023-02-15T06:03:56.761Z,204.40
2023-02-15T06:05:59.018Z,153.97
2023-02-15T06:08:05.957Z,121.97
2023-02-15T06:10:08.494Z,101.97
2023-02-15T06:12:10.521Z,116.57
2023-02-15T06:14:12.754Z,98.23
2023-02-15T06:16:16.990Z,216.37
2023-02-15T06:18:19.324Z,198.33
2023-02-15T06:20:21.334Z,178.50
2023-02-15T06:22:23.842Z,117.07
2023-02-15T06:24:25.879Z,86.73
2023-02-15T06:26:27.840Z,63.43
2023-02-15T06:28:29.975Z,55.20
2023-02-15T06:30:32.728Z,62.60
2023-02-15T06:32:35.149Z,65.63
2023-02-15T06:34:37.278Z,77.60
2023-02-15T06:36:39.384Z,80.93
2023-02-15T06:38:41.299Z,71.33
2023-02-15T06:40:43.329Z,75.93
2023-02-15T06:42:45.974Z,69.47
2023-02-15T06:44:47.869Z,74.23
2023-02-15T06:46:49.934Z,80.03
2023-02-15T06:48:51.821Z,86.17
2023-02-15T06:50:53.891Z,94.33
2023-02-15T06:52:59.951Z,91.23
2023-02-15T06:55:04.947Z,96.00
2023-02-15T06:57:07.118Z,94.93
2023-02-15T06:59:09.275Z,88.20
2023-02-15T07:01:11.418Z,80.60
2023-02-15T07:03:16.060Z,79.07
2023-02-15T07:05:18.149Z,77.67
2023-02-15T07:07:20.288Z,83.83
2023-02-15T07:09:23.009Z,84.67
2023-02-15T07:11:46.175Z,95.67
2023-02-15T07:13:48.957Z,89.00
2023-02-15T07:15:51.495Z,84.37
2023-02-15T07:17:53.524Z,90.77
2023-02-15T07:19:56.266Z,87.23
2023-02-15T07:21:58.297Z,81.33
2023-02-15T07:24:00.281Z,94.30
2023-02-15T07:26:03.361Z,87.67
2023-02-15T07:28:05.966Z,81.63
2023-02-15T07:30:13.506Z,91.43
2023-02-15T07:32:15.957Z,85.20
2023-02-15T07:34:18.317Z,83.47
2023-02-15T07:36:20.391Z,81.80
2023-02-15T07:38:22.814Z,78.83
2023-02-15T07:40:25.684Z,76.87
2023-02-15T07:42:27.795Z,71.57
2023-02-15T07:44:29.931Z,69.47
2023-02-15T07:46:32.101Z,71.33
2023-02-15T07:48:35.811Z,73.67
2023-02-15T07:50:37.921Z,71.70
2023-02-15T07:52:40.364Z,72.03
2023-02-15T07:54:42.511Z,72.63
2023-02-15T07:56:44.724Z,78.17
2023-02-15T07:58:52.883Z,75.07
2023-02-15T08:01:01.838Z,70.70
2023-02-15T08:03:16.126Z,75.47
2023-02-15T08:05:19.364Z,76.17
2023-02-15T08:07:21.383Z,75.53
2023-02-15T08:09:23.732Z,76.90
2023-02-15T08:11:37.189Z,80.17
2023-02-15T08:13:55.750Z,73.87
2023-02-15T08:15:57.886Z,77.43
2023-02-15T08:18:00.019Z,76.60
2023-02-15T08:20:02.079Z,67.40
2023-02-15T08:22:07.333Z,67.27
2023-02-15T08:24:11.074Z,64.07
2023-02-15T08:26:13.557Z,68.77
2023-02-15T08:28:16.158Z,67.47
2023-02-15T08:30:18.700Z,67.70
2023-02-15T08:32:20.645Z,71.23
2023-02-15T08:34:22.790Z,69.10
2023-02-15T08:36:28.429Z,78.30
2023-02-15T08:38:33.233Z,66.93
2023-02-15T08:40:36.131Z,67.00
2023-02-15T08:42:38.180Z,65.10
2023-02-15T08:44:40.332Z,73.17
2023-02-15T08:46:44.652Z,69.57
2023-02-15T08:48:47.360Z,80.40
2023-02-15T08:50:51.850Z,81.40
2023-02-15T08:52:53.962Z,82.67
2023-02-15T08:54:56.603Z,83.83
2023-02-15T08:56:58.694Z,81.10
2023-02-15T08:59:01.455Z,82.93
2023-02-15T09:01:10.555Z,81.73
2023-02-15T09:03:12.527Z,82.70
2023-02-15T09:05:14.822Z,81.17
2023-02-15T09:07:19.185Z,82.83
2023-02-15T09:09:23.530Z,69.73
2023-02-15T09:11:28.885Z,64.60
2023-02-15T09:13:30.759Z,61.57
2023-02-15T09:15:32.872Z,53.33
2023-02-15T09:17:34.950Z,50.60
2023-02-15T09:19:37.166Z,50.47
2023-02-15T09:21:39.679Z,47.00
2023-02-15T09:23:42.911Z,41.13
2023-02-15T09:25:45.033Z,47.47
2023-02-15T09:27:47.761Z,42.87
2023-02-15T09:29:49.913Z,38.50
2023-02-15T09:31:53.512Z,35.20
2023-02-15T09:33:56.512Z,35.97
2023-02-15T09:35:58.632Z,38.90
2023-02-15T09:38:00.791Z,42.13
2023-02-15T09:40:02.920Z,46.13
2023-02-15T09:42:35.007Z,47.73
2023-02-15T09:44:58.432Z,43.60
2023-02-15T09:47:32.158Z,36.20
2023-02-15T09:50:06.927Z,38.43
2023-02-15T09:52:18.754Z,38.30
2023-02-15T09:54:42.184Z,43.33
2023-02-15T09:57:00.638Z,46.60
2023-02-15T09:59:08.629Z,47.87
2023-02-15T10:01:36.380Z,43.47
2023-02-15T10:04:16.342Z,42.50
2023-02-15T10:06:43.330Z,39.27
2023-02-15T10:09:35.640Z,41.90
2023-02-15T10:12:06.952Z,32.10
2023-02-15T10:14:16.927Z,32.03
2023-02-15T10:16:42.091Z,30.70
2023-02-15T10:19:02.597Z,32.70
2023-02-15T10:21:23.204Z,34.83
2023-02-15T10:24:02.731Z,32.77
2023-02-15T10:26:35.849Z,34.33
2023-02-15T10:28:43.719Z,27.10
2023-02-15T10:30:52.002Z,27.67
2023-02-15T10:33:02.151Z,33.10
2023-02-15T10:35:14.712Z,31.40
2023-02-15T10:37:54.694Z,30.07
2023-02-15T10:40:19.377Z,28.23
2023-02-15T10:42:48.902Z,23.73
2023-02-15T10:45:10.009Z,25.85
2023-02-15T10:47:30.669Z,25.93
2023-02-15T10:49:41.992Z,25.70
2023-02-15T10:52:11.242Z,26.57
2023-02-15T10:54:44.413Z,67.32
2023-02-15T10:57:17.335Z,188.47
2023-02-15T10:59:54.665Z,120.03
2023-02-15T11:02:14.291Z,87.20
2023-02-15T11:04:41.368Z,57.33
2023-02-15T11:06:52.348Z,41.67
2023-02-15T11:09:03.266Z,45.22
2023-02-15T11:11:09.691Z,41.70
2023-02-15T11:13:18.475Z,36.47
2023-02-15T11:15:38.416Z,33.00
2023-02-15T11:17:51.820Z,26.73
2023-02-15T11:20:09.513Z,24.30
2023-02-15T11:22:12.793Z,24.30
2023-02-15T11:24:24.239Z,21.77
2023-02-15T11:26:36.173Z,23.08
2023-02-15T11:28:49.358Z,25.02
2023-02-15T11:30:56.291Z,42.63
2023-02-15T11:33:03.322Z,45.22
2023-02-15T11:35:53.523Z,42.30
2023-02-15T11:38:04.971Z,37.42
2023-02-15T11:40:20.381Z,33.80
2023-02-15T11:42:26.881Z,29.77
2023-02-15T11:44:38.460Z,30.42
2023-02-15T11:46:40.565Z,28.95
2023-02-15T11:48:43.566Z,29.95
2023-02-15T11:50:52.309Z,27.70
2023-02-15T11:53:00.292Z,34.10
2023-02-15T11:55:02.829Z,36.53
2023-02-15T11:57:34.932Z,35.90
2023-02-15T11:59:40.053Z,35.72
2023-02-15T12:01:44.734Z,35.05
2023-02-15T12:03:49.798Z,37.08
2023-02-15T12:05:58.375Z,33.35
2023-02-15T12:08:09.594Z,34.03
2023-02-15T12:10:15.207Z,34.42
2023-02-15T12:12:29.733Z,42.63
2023-02-15T12:14:49.876Z,44.35
2023-02-15T12:16:54.923Z,41.15
2023-02-15T12:19:00.095Z,39.78
2023-02-15T12:21:11.503Z,36.15
2023-02-15T12:23:16.670Z,45.30
2023-02-15T12:25:39.091Z,45.67
2023-02-15T12:27:44.287Z,42.67
2023-02-15T12:29:52.100Z,37.78
2023-02-15T12:31:55.088Z,39.50
2023-02-15T12:34:03.005Z,37.72
2023-02-15T12:36:12.653Z,40.17
2023-02-15T12:38:14.713Z,40.80
2023-02-15T12:40:23.401Z,39.53
2023-02-15T12:42:27.038Z,38.92
2023-02-15T12:44:38.297Z,37.40
2023-02-15T12:46:40.921Z,34.95
2023-02-15T12:48:42.865Z,34.20
2023-02-15T12:50:55.455Z,33.67
2023-02-15T12:53:21.391Z,32.38
2023-02-15T12:55:31.898Z,30.80
2023-02-15T12:57:35.570Z,33.92
2023-02-15T12:59:38.858Z,30.17
2023-02-15T13:01:41.500Z,32.08
2023-02-15T13:04:07.924Z,30.88
2023-02-15T13:06:09.901Z,36.53
2023-02-15T13:08:16.571Z,32.88
2023-02-15T13:10:32.272Z,37.45
2023-02-15T13:12:35.271Z,38.95
2023-02-15T13:14:46.349Z,42.47
2023-02-15T13:16:52.146Z,35.97
2023-02-15T13:18:54.616Z,37.28
2023-02-15T13:20:57.805Z,38.47
2023-02-15T13:23:08.226Z,38.58
2023-02-15T13:25:43.834Z,40.40
2023-02-15T13:27:49.603Z,96.22
2023-02-15T13:29:59.366Z,109.43
2023-02-15T13:32:26.360Z,113.53
2023-02-15T13:34:40.011Z,99.50
2023-02-15T13:37:00.638Z,67.15
2023-02-15T13:39:28.287Z,65.03
2023-02-15T13:42:05.280Z,54.95
2023-02-15T13:44:20.172Z,68.85
2023-02-15T13:46:25.217Z,54.47
2023-02-15T13:48:53.203Z,44.05
2023-02-15T13:51:16.417Z,62.17
2023-02-15T13:53:36.333Z,56.88
2023-02-15T13:55:45.196Z,58.22
2023-02-15T13:58:05.871Z,54.63
2023-02-15T14:00:19.800Z,46.63
2023-02-15T14:02:46.198Z,46.85
2023-02-15T14:04:54.257Z,51.75
2023-02-15T14:06:59.214Z,34.78
2023-02-15T14:09:21.701Z,33.50
2023-02-15T14:11:23.630Z,32.70
2023-02-15T14:13:49.799Z,34.60
2023-02-15T14:16:39.714Z,36.45
2023-02-15T14:18:50.080Z,33.10
2023-02-15T14:21:16.482Z,31.50
2023-02-15T14:23:24.991Z,30.77
2023-02-15T14:25:38.978Z,34.13
2023-02-15T14:28:02.198Z,29.40
2023-02-15T14:30:22.868Z,30.35
2023-02-15T14:32:36.730Z,28.10
2023-02-15T14:34:54.041Z,26.73
2023-02-15T14:36:57.275Z,34.50
2023-02-15T14:39:02.218Z,40.38
2023-02-15T14:41:28.770Z,63.42
2023-02-15T14:43:36.768Z,65.20
2023-02-15T14:45:56.102Z,67.72
2023-02-15T14:48:18.730Z,60.70
2023-02-15T14:50:37.687Z,62.85
2023-02-15T14:53:23.624Z,50.35
2023-02-15T14:56:08.473Z,44.17
2023-02-15T14:58:14.970Z,41.13
2023-02-15T15:00:34.902Z,42.63
2023-02-15T15:02:48.427Z,39.25
2023-02-15T15:05:03.398Z,37.75
2023-02-15T15:07:18.855Z,37.47
2023-02-15T15:09:26.783Z,36.95
2023-02-15T15:11:42.538Z,41.05
2023-02-15T15:13:59.837Z,41.50
2023-02-15T15:16:29.958Z,33.97
2023-02-15T15:18:50.456Z,29.37
2023-02-15T15:20:52.730Z,30.33
2023-02-15T15:23:17.388Z,32.25
2023-02-15T15:25:56.972Z,33.17
2023-02-15T15:27:59.544Z,32.33
2023-02-15T15:30:02.544Z,32.22
2023-02-15T15:32:11.464Z,33.63
2023-02-15T15:34:22.988Z,29.95
2023-02-15T15:36:49.090Z,33.75
2023-02-15T15:39:14.921Z,32.10
2023-02-15T15:41:16.895Z,35.93
2023-02-15T15:43:37.298Z,37.17
2023-02-15T15:45:48.216Z,31.67
2023-02-15T15:48:05.224Z,32.90
2023-02-15T15:50:20.731Z,39.60
2023-02-15T15:52:24.106Z,36.23
2023-02-15T15:54:28.874Z,31.87
2023-02-15T15:56:35.016Z,33.53
2023-02-15T15:58:38.295Z,40.97
2023-02-15T16:00:52.964Z,37.43
2023-02-15T16:02:56.675Z,35.77
2023-02-15T16:05:09.205Z,35.83
2023-02-15T16:07:29.648Z,41.07
2023-02-15T16:09:31.610Z,33.33
2023-02-15T16:11:33.844Z,42.37
2023-02-15T16:13:36.083Z,37.47
2023-02-15T16:15:53.508Z,45.70
2023-02-15T16:17:58.356Z,46.77
2023-02-15T16:20:06.716Z,44.07
2023-02-15T16:22:19.078Z,43.50
2023-02-15T16:24:55.603Z,45.63
2023-02-15T16:27:00.253Z,47.67
2023-02-15T16:29:02.626Z,50.10
2023-02-15T16:31:16.305Z,54.90
2023-02-15T16:33:19.123Z,53.23
2023-02-15T16:35:23.741Z,46.93
2023-02-15T16:37:28.520Z,46.87
2023-02-15T16:39:34.064Z,51.77
2023-02-15T16:41:36.819Z,50.70
2023-02-15T16:43:41.684Z,52.43
2023-02-15T16:45:44.507Z,51.63
2023-02-15T16:47:48.824Z,54.60
2023-02-15T16:49:53.773Z,62.03
2023-02-15T16:52:02.221Z,56.90
2023-02-15T16:54:16.533Z,56.57
2023-02-15T16:56:25.189Z,64.10
2023-02-15T16:58:31.684Z,67.60
2023-02-15T17:00:37.892Z,67.97
2023-02-15T17:02:55.639Z,73.97
2023-02-15T17:05:07.643Z,73.00
2023-02-15T17:07:20.104Z,74.83
2023-02-15T17:09:26.372Z,71.73
2023-02-15T17:11:37.801Z,82.33
2023-02-15T17:13:41.004Z,77.70
2023-02-15T17:15:44.127Z,76.77
2023-02-15T17:17:47.522Z,75.03
2023-02-15T17:19:53.633Z,74.73
2023-02-15T17:21:59.888Z,81.23
2023-02-15T17:24:05.276Z,86.23
2023-02-15T17:26:20.068Z,96.83
2023-02-15T17:28:25.463Z,92.50
2023-02-15T17:30:33.432Z,88.27
2023-02-15T17:32:37.430Z,90.63
2023-02-15T17:34:44.012Z,85.87
2023-02-15T17:37:00.577Z,80.77
2023-02-15T17:39:07.615Z,69.37
2023-02-15T17:41:10.102Z,66.87
2023-02-15T17:43:12.337Z,55.23
2023-02-15T17:45:15.516Z,46.57
2023-02-15T17:47:23.280Z,52.27
2023-02-15T17:49:38.590Z,37.27
2023-02-15T17:51:44.215Z,36.10
2023-02-15T17:54:07.681Z,31.23
2023-02-15T17:56:12.931Z,30.97
2023-02-15T17:58:17.223Z,34.20
2023-02-15T18:00:38.533Z,34.67
2023-02-15T18:02:59.728Z,34.23
2023-02-15T18:05:20.351Z,34.83
2023-02-15T18:07:41.168Z,34.77
2023-02-15T18:10:02.395Z,35.73
2023-02-15T18:12:28.034Z,31.43
2023-02-15T18:14:32.003Z,31.73
2023-02-15T18:16:38.047Z,38.30
2023-02-15T18:18:40.806Z,48.57
2023-02-15T18:20:45.024Z,44.13
2023-02-15T18:22:48.739Z,43.97
2023-02-15T18:24:52.490Z,52.53
2023-02-15T18:26:55.761Z,56.33
2023-02-15T18:29:08.070Z,45.13
2023-02-15T18:31:12.015Z,40.27
2023-02-15T18:33:47.903Z,37.30
2023-02-15T18:35:52.017Z,41.60
2023-02-15T18:37:54.741Z,43.33
2023-02-15T18:39:57.306Z,43.03
2023-02-15T18:42:01.535Z,40.80
2023-02-15T18:44:03.769Z,40.37
2023-02-15T18:46:06.138Z,35.90
2023-02-15T18:48:10.962Z,36.37
2023-02-15T18:50:14.271Z,45.20
2023-02-15T18:52:22.921Z,31.93
2023-02-15T18:54:26.331Z,32.30
2023-02-15T18:56:31.744Z,33.43
2023-02-15T18:58:34.339Z,32.40
2023-02-15T19:00:37.304Z,32.23
2023-02-15T19:02:40.714Z,33.07
2023-02-15T19:04:43.676Z,31.13
2023-02-15T19:06:48.628Z,33.43
2023-02-15T19:08:53.319Z,36.80
2023-02-15T19:10:55.612Z,44.67
2023-02-15T19:12:58.226Z,59.83
2023-02-15T19:15:01.304Z,54.80
2023-02-15T19:17:03.314Z,45.73
2023-02-15T19:19:07.274Z,54.27
2023-02-15T19:21:16.012Z,54.23
2023-02-15T19:23:21.524Z,49.37
2023-02-15T19:25:30.446Z,66.37
2023-02-15T19:27:35.296Z,66.50
2023-02-15T19:29:37.525Z,66.63
2023-02-15T19:31:39.594Z,72.20
2023-02-15T19:33:41.853Z,88.33
2023-02-15T19:35:47.199Z,70.93
2023-02-15T19:37:57.577Z,69.57
2023-02-15T19:40:03.965Z,61.97
2023-02-15T19:42:19.299Z,70.00
2023-02-15T19:44:21.847Z,62.97
2023-02-15T19:46:24.387Z,58.67
2023-02-15T19:48:26.697Z,62.03
2023-02-15T19:50:31.525Z,62.23
2023-02-15T19:52:33.735Z,63.27
2023-02-15T19:54:36.324Z,62.07
2023-02-15T19:56:38.445Z,61.33
2023-02-15T19:58:44.215Z,66.20
2023-02-15T20:00:48.850Z,68.77
2023-02-15T20:02:52.116Z,70.07
2023-02-15T20:04:54.429Z,70.33
2023-02-15T20:06:59.539Z,66.73
2023-02-15T20:09:04.204Z,63.20
2023-02-15T20:11:11.153Z,61.13
2023-02-15T20:13:17.927Z,60.10
2023-02-15T20:15:23.263Z,62.70
2023-02-15T20:17:25.342Z,62.73
2023-02-15T20:19:27.698Z,59.20
2023-02-15T20:21:30.105Z,53.27
2023-02-15T20:23:35.942Z,50.50
2023-02-15T20:25:38.231Z,101.53
2023-02-15T20:27:42.504Z,90.37
2023-02-15T20:29:44.901Z,89.57
2023-02-15T20:31:47.283Z,81.47
2023-02-15T20:33:49.885Z,76.27
2023-02-15T20:35:52.552Z,77.90
2023-02-15T20:37:57.312Z,86.10
2023-02-15T20:39:59.591Z,83.10
2023-02-15T20:42:02.219Z,80.80
2023-02-15T20:44:18.111Z,77.77
2023-02-15T20:46:20.452Z,77.53
2023-02-15T20:48:22.962Z,83.97
2023-02-15T20:50:29.122Z,85.20
2023-02-15T20:52:31.984Z,90.60
2023-02-15T20:54:36.222Z,117.67
2023-02-15T20:56:38.583Z,135.33
2023-02-15T20:58:42.055Z,118.90
2023-02-15T21:00:44.137Z,113.23
2023-02-15T21:02:51.528Z,103.40
2023-02-15T21:04:55.757Z,105.20
2023-02-15T21:06:58.043Z,91.20
2023-02-15T21:09:02.117Z,89.53
2023-02-15T21:11:04.532Z,83.80
2023-02-15T21:13:15.768Z,85.90
2023-02-15T21:15:41.948Z,81.50
2023-02-15T21:17:44.234Z,103.70
2023-02-15T21:19:46.595Z,103.97
2023-02-15T21:21:53.961Z,98.53
2023-02-15T21:23:56.092Z,98.37
2023-02-15T21:25:58.381Z,91.77
2023-02-15T21:28:00.424Z,95.17
2023-02-15T21:30:02.713Z,97.80
2023-02-15T21:32:05.056Z,96.07
2023-02-15T21:34:09.451Z,96.43
2023-02-15T21:36:24.076Z,84.87
2023-02-15T21:38:31.356Z,81.30
2023-02-15T21:40:33.977Z,80.17
2023-02-15T21:42:54.933Z,75.53
2023-02-15T21:45:15.804Z,77.67
2023-02-15T21:47:40.549Z,81.53
2023-02-15T21:49:42.399Z,79.80
2023-02-15T21:52:13.547Z,82.23
2023-02-15T21:54:18.900Z,82.80
2023-02-15T21:56:22.275Z,78.37
2023-02-15T21:58:26.850Z,79.90
2023-02-15T22:00:29.976Z,78.70
2023-02-15T22:02:32.372Z,85.03
2023-02-15T22:04:34.357Z,76.70
2023-02-15T22:06:36.462Z,77.17
2023-02-15T22:08:38.550Z,87.40
2023-02-15T22:10:41.783Z,104.97
2023-02-15T22:12:44.570Z,107.07
2023-02-15T22:14:52.537Z,113.03
2023-02-15T22:16:54.606Z,112.53
2023-02-15T22:18:56.571Z,101.03
2023-02-15T22:20:59.994Z,131.07
2023-02-15T22:23:02.316Z,119.87
2023-02-15T22:25:04.909Z,118.20
2023-02-15T22:27:08.017Z,117.27
2023-02-15T22:29:19.156Z,102.97
2023-02-15T22:31:23.048Z,94.30
2023-02-15T22:33:31.386Z,114.40
2023-02-15T22:35:36.164Z,93.70
2023-02-15T22:37:38.376Z,174.60
2023-02-15T22:39:40.899Z,159.73
2023-02-15T22:41:43.078Z,165.33
2023-02-15T22:43:46.507Z,147.70
2023-02-15T22:45:49.193Z,134.63
2023-02-15T22:47:56.542Z,117.50
2023-02-15T22:50:02.429Z,106.27
2023-02-15T22:52:06.647Z,90.77
2023-02-15T22:54:08.785Z,89.67
2023-02-15T22:56:18.739Z,82.60
2023-02-15T22:58:24.864Z,77.33
2023-02-15T23:00:30.742Z,74.30
2023-02-15T23:02:36.025Z,96.10
2023-02-15T23:04:38.219Z,106.33
2023-02-15T23:06:40.251Z,119.30
2023-02-15T23:08:42.596Z,154.03
2023-02-15T23:10:48.939Z,141.07
2023-02-15T23:13:15.521Z,134.80
2023-02-15T23:15:17.687Z,121.57
2023-02-15T23:17:20.618Z,106.93
2023-02-15T23:19:23.013Z,99.13
2023-02-15T23:21:30.690Z,98.30
2023-02-15T23:23:37.225Z,94.27
2023-02-15T23:25:39.680Z,92.90
2023-02-15T23:27:59.759Z,94.40
2023-02-15T23:30:04.141Z,89.53
2023-02-15T23:32:12.661Z,96.67
2023-02-15T23:34:17.941Z,86.17
2023-02-15T23:36:28.291Z,89.23
2023-02-15T23:38:31.434Z,80.60
2023-02-15T23:40:52.244Z,81.73
2023-02-15T23:42:54.502Z,82.27
2023-02-15T23:44:57.260Z,81.63
2023-02-15T23:46:59.834Z,82.73
2023-02-15T23:49:02.175Z,82.87
2023-02-15T23:51:10.995Z,100.30
2023-02-15T23:53:13.485Z,94.73
2023-02-15T23:55:15.601Z,107.97
2023-02-15T23:57:17.743Z,103.67
2023-02-15T23:59:24.613Z,109.50
